sensor_id;sensor_type;location;lat;lon;timestamp;P1;durP1;ratioP1;P2;durP2;ratioP2
3052;SDS011;1536;51.098;6.414;2023-07-28T00:02:15;2.60;;;1.70;;
3052;SDS011;1536;51.098;6.414;2023-07-28T00:04:41;2.10;;;1.90;;
3052;SDS011;1536;51.098;6.414;2023-07-28T00:07:08;3.90;;;2.20;;
3052;SDS011;1536;51.098;6.414;2023-07-28T00:09:35;2.87;;;1.93;;
3052;SDS011;1536;51.098;6.414;2023-07-28T00:12:02;1.70;;;1.50;;
3052;SDS011;1536;51.098;6.414;2023-07-28T00:14:31;2.27;;;2.07;;
3052;SDS011;1536;51.098;6.414;2023-07-28T00:16:58;3.60;;;2.27;;
3052;SDS011;1536;51.098;6.414;2023-07-28T00:19:25;4.60;;;1.50;;
3052;SDS011;1536;51.098;6.414;2023-07-28T00:21:52;5.07;;;2.20;;
3052;SDS011;1536;51.098;6.414;2023-07-28T00:24:21;3.73;;;2.07;;
3052;SDS011;1536;51.098;6.414;2023-07-28T00:26:47;3.20;;;2.00;;
3052;SDS011;1536;51.098;6.414;2023-07-28T00:29:14;3.50;;;2.00;;
3052;SDS011;1536;51.098;6.414;2023-07-28T00:31:42;6.40;;;2.03;;
3052;SDS011;1536;51.098;6.414;2023-07-28T00:34:09;2.90;;;1.87;;
3052;SDS011;1536;51.098;6.414;2023-07-28T00:36:36;5.03;;;2.00;;
3052;SDS011;1536;51.098;6.414;2023-07-28T00:39:02;2.40;;;1.57;;
3052;SDS011;1536;51.098;6.414;2023-07-28T00:41:29;2.00;;;1.80;;
3052;SDS011;1536;51.098;6.414;2023-07-28T00:43:56;2.30;;;2.00;;
3052;SDS011;1536;51.098;6.414;2023-07-28T00:46:23;2.20;;;2.00;;
3052;SDS011;1536;51.098;6.414;2023-07-28T00:48:51;1.73;;;1.50;;
3052;SDS011;1536;51.098;6.414;2023-07-28T00:51:19;2.33;;;2.13;;
3052;SDS011;1536;51.098;6.414;2023-07-28T00:53:46;3.73;;;2.03;;
3052;SDS011;1536;51.098;6.414;2023-07-28T00:56:14;2.40;;;2.20;;
3052;SDS011;1536;51.098;6.414;2023-07-28T00:58:41;3.40;;;2.40;;
3052;SDS011;1536;51.098;6.414;2023-07-28T01:01:08;5.00;;;2.10;;
3052;SDS011;1536;51.098;6.414;2023-07-28T01:03:35;3.33;;;2.20;;
3052;SDS011;1536;51.098;6.414;2023-07-28T01:06:07;2.40;;;2.13;;
3052;SDS011;1536;51.098;6.414;2023-07-28T01:08:42;3.63;;;2.30;;
3052;SDS011;1536;51.098;6.414;2023-07-28T01:11:14;5.37;;;2.40;;
3052;SDS011;1536;51.098;6.414;2023-07-28T01:13:41;2.43;;;2.20;;
3052;SDS011;1536;51.098;6.414;2023-07-28T01:16:08;8.20;;;2.13;;
3052;SDS011;1536;51.098;6.414;2023-07-28T01:18:35;2.83;;;2.27;;
3052;SDS011;1536;51.098;6.414;2023-07-28T01:21:03;3.80;;;2.50;;
3052;SDS011;1536;51.098;6.414;2023-07-28T01:23:37;2.50;;;2.30;;
3052;SDS011;1536;51.098;6.414;2023-07-28T01:26:10;2.80;;;2.50;;
3052;SDS011;1536;51.098;6.414;2023-07-28T01:28:40;2.50;;;2.30;;
3052;SDS011;1536;51.098;6.414;2023-07-28T01:31:07;6.07;;;2.23;;
3052;SDS011;1536;51.098;6.414;2023-07-28T01:33:34;3.80;;;2.30;;
3052;SDS011;1536;51.098;6.414;2023-07-28T01:36:01;2.90;;;2.40;;
3052;SDS011;1536;51.098;6.414;2023-07-28T01:38:28;3.43;;;2.10;;
3052;SDS011;1536;51.098;6.414;2023-07-28T01:40:55;3.63;;;2.30;;
3052;SDS011;1536;51.098;6.414;2023-07-28T01:43:22;3.43;;;2.40;;
3052;SDS011;1536;51.098;6.414;2023-07-28T01:45:50;2.70;;;2.20;;
3052;SDS011;1536;51.098;6.414;2023-07-28T01:48:17;2.50;;;2.30;;
3052;SDS011;1536;51.098;6.414;2023-07-28T01:50:44;3.80;;;2.20;;
3052;SDS011;1536;51.098;6.414;2023-07-28T01:53:10;2.83;;;2.63;;
3052;SDS011;1536;51.098;6.414;2023-07-28T01:55:38;2.50;;;2.30;;
3052;SDS011;1536;51.098;6.414;2023-07-28T01:58:05;2.70;;;2.33;;
3052;SDS011;1536;51.098;6.414;2023-07-28T02:00:32;2.33;;;2.13;;
3052;SDS011;1536;51.098;6.414;2023-07-28T02:03:01;2.80;;;2.50;;
3052;SDS011;1536;51.098;6.414;2023-07-28T02:05:30;2.70;;;2.47;;
3052;SDS011;1536;51.098;6.414;2023-07-28T02:07:57;4.63;;;2.40;;
3052;SDS011;1536;51.098;6.414;2023-07-28T02:10:25;3.70;;;2.90;;
3052;SDS011;1536;51.098;6.414;2023-07-28T02:12:52;4.30;;;2.60;;
3052;SDS011;1536;51.098;6.414;2023-07-28T02:15:19;2.93;;;2.60;;
3052;SDS011;1536;51.098;6.414;2023-07-28T02:17:48;4.50;;;3.17;;
3052;SDS011;1536;51.098;6.414;2023-07-28T02:20:16;3.10;;;2.80;;
3052;SDS011;1536;51.098;6.414;2023-07-28T02:22:43;3.17;;;2.90;;
3052;SDS011;1536;51.098;6.414;2023-07-28T02:25:10;3.43;;;3.13;;
3052;SDS011;1536;51.098;6.414;2023-07-28T02:27:37;3.67;;;3.27;;
3052;SDS011;1536;51.098;6.414;2023-07-28T02:30:06;6.20;;;3.00;;
3052;SDS011;1536;51.098;6.414;2023-07-28T02:32:33;4.57;;;3.57;;
3052;SDS011;1536;51.098;6.414;2023-07-28T02:35:00;6.23;;;3.03;;
3052;SDS011;1536;51.098;6.414;2023-07-28T02:37:28;5.77;;;3.23;;
3052;SDS011;1536;51.098;6.414;2023-07-28T02:39:55;2.70;;;2.50;;
3052;SDS011;1536;51.098;6.414;2023-07-28T02:42:21;2.90;;;2.70;;
3052;SDS011;1536;51.098;6.414;2023-07-28T02:44:50;3.40;;;2.23;;
3052;SDS011;1536;51.098;6.414;2023-07-28T02:47:17;4.40;;;2.50;;
3052;SDS011;1536;51.098;6.414;2023-07-28T02:49:44;3.43;;;3.13;;
3052;SDS011;1536;51.098;6.414;2023-07-28T02:52:10;2.90;;;2.30;;
3052;SDS011;1536;51.098;6.414;2023-07-28T02:54:38;2.60;;;2.40;;
3052;SDS011;1536;51.098;6.414;2023-07-28T02:57:05;3.90;;;2.50;;
3052;SDS011;1536;51.098;6.414;2023-07-28T02:59:32;2.73;;;2.30;;
3052;SDS011;1536;51.098;6.414;2023-07-28T03:01:59;3.47;;;2.23;;
3052;SDS011;1536;51.098;6.414;2023-07-28T03:04:26;2.20;;;1.80;;
3052;SDS011;1536;51.098;6.414;2023-07-28T03:06:53;4.70;;;2.13;;
3052;SDS011;1536;51.098;6.414;2023-07-28T03:09:19;2.87;;;2.17;;
3052;SDS011;1536;51.098;6.414;2023-07-28T03:11:47;2.07;;;1.87;;
3052;SDS011;1536;51.098;6.414;2023-07-28T03:14:14;3.10;;;1.60;;
3052;SDS011;1536;51.098;6.414;2023-07-28T03:16:41;1.93;;;1.50;;
3052;SDS011;1536;51.098;6.414;2023-07-28T03:19:08;2.93;;;1.63;;
3052;SDS011;1536;51.098;6.414;2023-07-28T03:21:34;2.20;;;2.00;;
3052;SDS011;1536;51.098;6.414;2023-07-28T03:24:01;1.50;;;1.40;;
3052;SDS011;1536;51.098;6.414;2023-07-28T03:26:28;3.37;;;1.60;;
3052;SDS011;1536;51.098;6.414;2023-07-28T03:28:57;4.40;;;1.60;;
3052;SDS011;1536;51.098;6.414;2023-07-28T03:31:24;1.50;;;1.37;;
3052;SDS011;1536;51.098;6.414;2023-07-28T03:33:53;1.87;;;1.67;;
3052;SDS011;1536;51.098;6.414;2023-07-28T03:36:19;1.97;;;1.80;;
3052;SDS011;1536;51.098;6.414;2023-07-28T03:38:47;1.97;;;1.50;;
3052;SDS011;1536;51.098;6.414;2023-07-28T03:41:13;1.60;;;1.50;;
3052;SDS011;1536;51.098;6.414;2023-07-28T03:43:40;1.57;;;1.43;;
3052;SDS011;1536;51.098;6.414;2023-07-28T03:46:09;1.70;;;1.30;;
3052;SDS011;1536;51.098;6.414;2023-07-28T03:48:36;2.60;;;1.70;;
3052;SDS011;1536;51.098;6.414;2023-07-28T03:51:03;1.53;;;1.43;;
3052;SDS011;1536;51.098;6.414;2023-07-28T03:53:30;1.70;;;1.60;;
3052;SDS011;1536;51.098;6.414;2023-07-28T03:56:00;3.23;;;1.90;;
3052;SDS011;1536;51.098;6.414;2023-07-28T03:58:26;1.80;;;1.70;;
3052;SDS011;1536;51.098;6.414;2023-07-28T04:00:53;1.83;;;1.73;;
3052;SDS011;1536;51.098;6.414;2023-07-28T04:03:21;2.07;;;1.97;;
3052;SDS011;1536;51.098;6.414;2023-07-28T04:05:48;2.17;;;1.97;;
3052;SDS011;1536;51.098;6.414;2023-07-28T04:08:15;1.50;;;1.40;;
3052;SDS011;1536;51.098;6.414;2023-07-28T04:10:42;2.00;;;1.80;;
3052;SDS011;1536;51.098;6.414;2023-07-28T04:13:08;2.23;;;1.77;;
3052;SDS011;1536;51.098;6.414;2023-07-28T04:15:35;1.60;;;1.47;;
3052;SDS011;1536;51.098;6.414;2023-07-28T04:18:02;3.20;;;2.07;;
3052;SDS011;1536;51.098;6.414;2023-07-28T04:20:30;2.50;;;2.00;;
3052;SDS011;1536;51.098;6.414;2023-07-28T04:22:59;2.90;;;2.60;;
3052;SDS011;1536;51.098;6.414;2023-07-28T04:25:26;3.20;;;2.17;;
3052;SDS011;1536;51.098;6.414;2023-07-28T04:27:53;4.87;;;2.10;;
3052;SDS011;1536;51.098;6.414;2023-07-28T04:30:23;2.33;;;2.13;;
3052;SDS011;1536;51.098;6.414;2023-07-28T04:32:49;3.33;;;2.13;;
3052;SDS011;1536;51.098;6.414;2023-07-28T04:35:16;4.60;;;3.00;;
3052;SDS011;1536;51.098;6.414;2023-07-28T04:37:44;3.13;;;2.83;;
3052;SDS011;1536;51.098;6.414;2023-07-28T04:40:11;5.27;;;3.97;;
3052;SDS011;1536;51.098;6.414;2023-07-28T04:42:39;6.73;;;5.70;;
3052;SDS011;1536;51.098;6.414;2023-07-28T04:45:07;11.77;;;7.00;;
3052;SDS011;1536;51.098;6.414;2023-07-28T04:47:34;8.37;;;7.43;;
3052;SDS011;1536;51.098;6.414;2023-07-28T04:50:01;9.17;;;8.23;;
3052;SDS011;1536;51.098;6.414;2023-07-28T04:52:28;9.97;;;6.43;;
3052;SDS011;1536;51.098;6.414;2023-07-28T04:54:56;6.20;;;5.60;;
3052;SDS011;1536;51.098;6.414;2023-07-28T04:57:23;4.70;;;4.20;;
3052;SDS011;1536;51.098;6.414;2023-07-28T04:59:49;5.03;;;4.53;;
3052;SDS011;1536;51.098;6.414;2023-07-28T05:02:17;6.23;;;4.83;;
3052;SDS011;1536;51.098;6.414;2023-07-28T05:04:44;5.80;;;5.10;;
3052;SDS011;1536;51.098;6.414;2023-07-28T05:07:11;7.50;;;6.27;;
3052;SDS011;1536;51.098;6.414;2023-07-28T05:09:37;6.67;;;5.77;;
3052;SDS011;1536;51.098;6.414;2023-07-28T05:12:07;8.40;;;7.20;;
3052;SDS011;1536;51.098;6.414;2023-07-28T05:14:34;9.70;;;8.30;;
3052;SDS011;1536;51.098;6.414;2023-07-28T05:17:01;9.50;;;7.60;;
3052;SDS011;1536;51.098;6.414;2023-07-28T05:19:28;9.17;;;7.50;;
3052;SDS011;1536;51.098;6.414;2023-07-28T05:21:55;8.00;;;6.60;;
3052;SDS011;1536;51.098;6.414;2023-07-28T05:24:21;9.17;;;7.73;;
3052;SDS011;1536;51.098;6.414;2023-07-28T05:26:48;9.57;;;7.63;;
3052;SDS011;1536;51.098;6.414;2023-07-28T05:29:19;11.10;;;7.90;;
3052;SDS011;1536;51.098;6.414;2023-07-28T05:31:46;7.37;;;6.17;;
3052;SDS011;1536;51.098;6.414;2023-07-28T05:34:12;5.67;;;5.17;;
3052;SDS011;1536;51.098;6.414;2023-07-28T05:36:39;7.07;;;6.37;;
3052;SDS011;1536;51.098;6.414;2023-07-28T05:39:06;8.50;;;7.70;;
3052;SDS011;1536;51.098;6.414;2023-07-28T05:41:33;10.77;;;9.67;;
3052;SDS011;1536;51.098;6.414;2023-07-28T05:44:00;12.17;;;9.63;;
3052;SDS011;1536;51.098;6.414;2023-07-28T05:46:28;12.53;;;10.10;;
3052;SDS011;1536;51.098;6.414;2023-07-28T05:48:55;10.90;;;9.80;;
3052;SDS011;1536;51.098;6.414;2023-07-28T05:51:22;10.63;;;9.50;;
3052;SDS011;1536;51.098;6.414;2023-07-28T05:53:49;9.10;;;8.07;;
3052;SDS011;1536;51.098;6.414;2023-07-28T05:56:16;12.40;;;9.00;;
3052;SDS011;1536;51.098;6.414;2023-07-28T05:58:43;12.13;;;10.03;;
3052;SDS011;1536;51.098;6.414;2023-07-28T06:01:10;12.87;;;9.80;;
3052;SDS011;1536;51.098;6.414;2023-07-28T06:03:38;12.53;;;9.83;;
3052;SDS011;1536;51.098;6.414;2023-07-28T06:06:05;11.20;;;8.47;;
3052;SDS011;1536;51.098;6.414;2023-07-28T06:08:32;10.30;;;7.07;;
3052;SDS011;1536;51.098;6.414;2023-07-28T06:10:59;7.30;;;6.60;;
3052;SDS011;1536;51.098;6.414;2023-07-28T06:13:28;4.77;;;4.27;;
3052;SDS011;1536;51.098;6.414;2023-07-28T06:15:55;4.53;;;3.90;;
3052;SDS011;1536;51.098;6.414;2023-07-28T06:18:23;3.80;;;3.50;;
3052;SDS011;1536;51.098;6.414;2023-07-28T06:20:51;4.83;;;3.57;;
3052;SDS011;1536;51.098;6.414;2023-07-28T06:23:18;3.90;;;3.00;;
3052;SDS011;1536;51.098;6.414;2023-07-28T06:25:44;4.10;;;3.00;;
3052;SDS011;1536;51.098;6.414;2023-07-28T06:28:11;3.13;;;2.83;;
3052;SDS011;1536;51.098;6.414;2023-07-28T06:30:38;4.00;;;3.60;;
3052;SDS011;1536;51.098;6.414;2023-07-28T06:33:06;4.07;;;3.50;;
3052;SDS011;1536;51.098;6.414;2023-07-28T06:35:33;4.53;;;4.10;;
3052;SDS011;1536;51.098;6.414;2023-07-28T06:38:01;4.60;;;3.33;;
3052;SDS011;1536;51.098;6.414;2023-07-28T06:40:28;5.30;;;3.90;;
3052;SDS011;1536;51.098;6.414;2023-07-28T06:42:56;5.90;;;4.27;;
3052;SDS011;1536;51.098;6.414;2023-07-28T06:45:23;5.03;;;4.10;;
3052;SDS011;1536;51.098;6.414;2023-07-28T06:47:50;4.17;;;3.77;;
3052;SDS011;1536;51.098;6.414;2023-07-28T06:50:17;3.90;;;3.50;;
3052;SDS011;1536;51.098;6.414;2023-07-28T06:52:45;5.40;;;4.20;;
3052;SDS011;1536;51.098;6.414;2023-07-28T06:55:14;3.73;;;3.20;;
3052;SDS011;1536;51.098;6.414;2023-07-28T06:57:42;5.80;;;4.00;;
3052;SDS011;1536;51.098;6.414;2023-07-28T07:00:09;9.10;;;3.80;;
3052;SDS011;1536;51.098;6.414;2023-07-28T07:02:39;7.03;;;4.13;;
3052;SDS011;1536;51.098;6.414;2023-07-28T07:05:06;4.13;;;3.73;;
3052;SDS011;1536;51.098;6.414;2023-07-28T07:07:33;6.43;;;3.40;;
3052;SDS011;1536;51.098;6.414;2023-07-28T07:10:00;5.10;;;3.87;;
3052;SDS011;1536;51.098;6.414;2023-07-28T07:12:28;5.43;;;4.60;;
3052;SDS011;1536;51.098;6.414;2023-07-28T07:14:55;3.70;;;3.40;;
3052;SDS011;1536;51.098;6.414;2023-07-28T07:17:22;6.90;;;3.70;;
3052;SDS011;1536;51.098;6.414;2023-07-28T07:19:49;4.50;;;3.57;;
3052;SDS011;1536;51.098;6.414;2023-07-28T07:22:16;7.50;;;4.47;;
3052;SDS011;1536;51.098;6.414;2023-07-28T07:24:43;11.83;;;4.73;;
3052;SDS011;1536;51.098;6.414;2023-07-28T07:27:09;4.77;;;4.37;;
3052;SDS011;1536;51.098;6.414;2023-07-28T07:29:39;9.47;;;4.73;;
3052;SDS011;1536;51.098;6.414;2023-07-28T07:32:07;7.37;;;5.40;;
3052;SDS011;1536;51.098;6.414;2023-07-28T07:34:36;5.93;;;5.43;;
3052;SDS011;1536;51.098;6.414;2023-07-28T07:37:03;7.77;;;6.40;;
3052;SDS011;1536;51.098;6.414;2023-07-28T07:39:31;15.70;;;7.47;;
3052;SDS011;1536;51.098;6.414;2023-07-28T07:41:59;8.40;;;7.57;;
3052;SDS011;1536;51.098;6.414;2023-07-28T07:44:26;9.73;;;7.20;;
3052;SDS011;1536;51.098;6.414;2023-07-28T07:46:54;6.63;;;6.03;;
3052;SDS011;1536;51.098;6.414;2023-07-28T07:49:21;6.87;;;5.50;;
3052;SDS011;1536;51.098;6.414;2023-07-28T07:51:48;5.67;;;5.17;;
3052;SDS011;1536;51.098;6.414;2023-07-28T07:54:15;7.87;;;4.80;;
3052;SDS011;1536;51.098;6.414;2023-07-28T07:56:43;5.60;;;4.80;;
3052;SDS011;1536;51.098;6.414;2023-07-28T07:59:11;9.43;;;5.57;;
3052;SDS011;1536;51.098;6.414;2023-07-28T08:01:38;6.07;;;5.47;;
3052;SDS011;1536;51.098;6.414;2023-07-28T08:04:07;5.03;;;4.63;;
3052;SDS011;1536;51.098;6.414;2023-07-28T08:06:35;7.07;;;5.47;;
3052;SDS011;1536;51.098;6.414;2023-07-28T08:09:03;5.77;;;4.80;;
3052;SDS011;1536;51.098;6.414;2023-07-28T08:11:30;5.07;;;4.13;;
3052;SDS011;1536;51.098;6.414;2023-07-28T08:13:58;7.33;;;4.73;;
3052;SDS011;1536;51.098;6.414;2023-07-28T08:16:25;6.20;;;3.80;;
3052;SDS011;1536;51.098;6.414;2023-07-28T08:18:52;6.97;;;4.63;;
3052;SDS011;1536;51.098;6.414;2023-07-28T08:21:20;5.80;;;4.63;;
3052;SDS011;1536;51.098;6.414;2023-07-28T08:23:47;4.30;;;3.90;;
3052;SDS011;1536;51.098;6.414;2023-07-28T08:26:14;5.30;;;4.80;;
3052;SDS011;1536;51.098;6.414;2023-07-28T08:28:43;5.80;;;4.87;;
3052;SDS011;1536;51.098;6.414;2023-07-28T08:31:13;5.23;;;4.83;;
3052;SDS011;1536;51.098;6.414;2023-07-28T08:33:47;4.20;;;3.80;;
3052;SDS011;1536;51.098;6.414;2023-07-28T08:36:15;5.93;;;4.83;;
3052;SDS011;1536;51.098;6.414;2023-07-28T08:38:43;5.43;;;4.93;;
3052;SDS011;1536;51.098;6.414;2023-07-28T08:41:14;4.60;;;4.10;;
3052;SDS011;1536;51.098;6.414;2023-07-28T08:43:41;4.37;;;3.97;;
3052;SDS011;1536;51.098;6.414;2023-07-28T08:46:08;6.20;;;4.80;;
3052;SDS011;1536;51.098;6.414;2023-07-28T08:48:38;5.43;;;3.87;;
3052;SDS011;1536;51.098;6.414;2023-07-28T08:51:06;4.40;;;4.00;;
3052;SDS011;1536;51.098;6.414;2023-07-28T08:53:34;6.93;;;3.73;;
3052;SDS011;1536;51.098;6.414;2023-07-28T08:56:04;4.50;;;4.10;;
3052;SDS011;1536;51.098;6.414;2023-07-28T08:58:33;6.23;;;3.47;;
3052;SDS011;1536;51.098;6.414;2023-07-28T09:01:00;3.77;;;3.47;;
3052;SDS011;1536;51.098;6.414;2023-07-28T09:03:29;6.80;;;4.10;;
3052;SDS011;1536;51.098;6.414;2023-07-28T09:05:59;4.00;;;3.60;;
3052;SDS011;1536;51.098;6.414;2023-07-28T09:08:27;3.67;;;3.37;;
3052;SDS011;1536;51.098;6.414;2023-07-28T09:10:56;3.47;;;3.27;;
3052;SDS011;1536;51.098;6.414;2023-07-28T09:13:34;3.70;;;3.40;;
3052;SDS011;1536;51.098;6.414;2023-07-28T09:16:03;3.40;;;3.10;;
3052;SDS011;1536;51.098;6.414;2023-07-28T09:18:30;3.70;;;3.40;;
3052;SDS011;1536;51.098;6.414;2023-07-28T09:20:57;3.70;;;3.10;;
3052;SDS011;1536;51.098;6.414;2023-07-28T09:23:29;4.20;;;2.60;;
3052;SDS011;1536;51.098;6.414;2023-07-28T09:25:58;3.77;;;2.57;;
3052;SDS011;1536;51.098;6.414;2023-07-28T09:28:37;3.50;;;1.87;;
3052;SDS011;1536;51.098;6.414;2023-07-28T09:31:04;2.33;;;2.13;;
3052;SDS011;1536;51.098;6.414;2023-07-28T09:33:32;1.70;;;1.60;;
3052;SDS011;1536;51.098;6.414;2023-07-28T09:36:06;1.50;;;1.37;;
3052;SDS011;1536;51.098;6.414;2023-07-28T09:38:37;3.00;;;1.87;;
3052;SDS011;1536;51.098;6.414;2023-07-28T09:41:06;2.80;;;2.60;;
3052;SDS011;1536;51.098;6.414;2023-07-28T09:43:36;2.47;;;2.27;;
3052;SDS011;1536;51.098;6.414;2023-07-28T09:46:07;2.33;;;2.13;;
3052;SDS011;1536;51.098;6.414;2023-07-28T09:48:36;2.27;;;2.07;;
3052;SDS011;1536;51.098;6.414;2023-07-28T09:51:12;4.40;;;1.90;;
3052;SDS011;1536;51.098;6.414;2023-07-28T09:53:46;1.97;;;1.60;;
3052;SDS011;1536;51.098;6.414;2023-07-28T09:56:19;1.90;;;1.70;;
3052;SDS011;1536;51.098;6.414;2023-07-28T09:58:53;1.70;;;1.50;;
3052;SDS011;1536;51.098;6.414;2023-07-28T10:01:21;2.13;;;1.60;;
3052;SDS011;1536;51.098;6.414;2023-07-28T10:03:51;1.97;;;1.77;;
3052;SDS011;1536;51.098;6.414;2023-07-28T10:06:20;2.93;;;2.03;;
3052;SDS011;1536;51.098;6.414;2023-07-28T10:08:49;2.27;;;2.07;;
3052;SDS011;1536;51.098;6.414;2023-07-28T10:11:16;2.50;;;1.90;;
3052;SDS011;1536;51.098;6.414;2023-07-28T10:13:45;2.50;;;2.20;;
3052;SDS011;1536;51.098;6.414;2023-07-28T10:16:14;2.10;;;1.90;;
3052;SDS011;1536;51.098;6.414;2023-07-28T10:18:43;2.40;;;2.20;;
3052;SDS011;1536;51.098;6.414;2023-07-28T10:21:19;1.93;;;1.70;;
3052;SDS011;1536;51.098;6.414;2023-07-28T10:23:54;2.70;;;1.60;;
3052;SDS011;1536;51.098;6.414;2023-07-28T10:26:34;1.60;;;1.50;;
3052;SDS011;1536;51.098;6.414;2023-07-28T10:29:08;1.63;;;1.13;;
3052;SDS011;1536;51.098;6.414;2023-07-28T10:31:38;1.23;;;1.13;;
3052;SDS011;1536;51.098;6.414;2023-07-28T10:34:16;1.93;;;1.43;;
3052;SDS011;1536;51.098;6.414;2023-07-28T10:36:43;1.67;;;1.57;;
3052;SDS011;1536;51.098;6.414;2023-07-28T10:39:15;3.30;;;1.80;;
3052;SDS011;1536;51.098;6.414;2023-07-28T10:41:59;2.30;;;2.10;;
3052;SDS011;1536;51.098;6.414;2023-07-28T10:44:28;2.33;;;1.60;;
3052;SDS011;1536;51.098;6.414;2023-07-28T10:46:56;5.77;;;1.70;;
3052;SDS011;1536;51.098;6.414;2023-07-28T10:49:24;2.13;;;1.90;;
3052;SDS011;1536;51.098;6.414;2023-07-28T10:51:53;2.17;;;1.97;;
3052;SDS011;1536;51.098;6.414;2023-07-28T10:54:23;2.80;;;2.60;;
3052;SDS011;1536;51.098;6.414;2023-07-28T10:56:50;3.03;;;2.10;;
3052;SDS011;1536;51.098;6.414;2023-07-28T10:59:19;2.20;;;2.00;;
3052;SDS011;1536;51.098;6.414;2023-07-28T11:01:46;2.77;;;2.30;;
3052;SDS011;1536;51.098;6.414;2023-07-28T11:04:15;3.07;;;1.90;;
3052;SDS011;1536;51.098;6.414;2023-07-28T11:06:43;3.80;;;2.10;;
3052;SDS011;1536;51.098;6.414;2023-07-28T11:09:15;2.20;;;1.60;;
3052;SDS011;1536;51.098;6.414;2023-07-28T11:11:45;3.73;;;1.87;;
3052;SDS011;1536;51.098;6.414;2023-07-28T11:14:16;1.77;;;1.43;;
3052;SDS011;1536;51.098;6.414;2023-07-28T11:16:49;3.03;;;1.53;;
3052;SDS011;1536;51.098;6.414;2023-07-28T11:19:18;1.70;;;1.60;;
3052;SDS011;1536;51.098;6.414;2023-07-28T11:21:50;1.50;;;1.30;;
3052;SDS011;1536;51.098;6.414;2023-07-28T11:24:18;1.30;;;1.20;;
3052;SDS011;1536;51.098;6.414;2023-07-28T11:26:49;1.77;;;1.40;;
3052;SDS011;1536;51.098;6.414;2023-07-28T11:29:17;4.30;;;1.20;;
3052;SDS011;1536;51.098;6.414;2023-07-28T11:31:45;1.73;;;1.60;;
3052;SDS011;1536;51.098;6.414;2023-07-28T11:34:14;1.20;;;1.10;;
3052;SDS011;1536;51.098;6.414;2023-07-28T11:36:43;2.67;;;1.17;;
3052;SDS011;1536;51.098;6.414;2023-07-28T11:39:10;1.80;;;1.70;;
3052;SDS011;1536;51.098;6.414;2023-07-28T11:41:39;1.30;;;1.20;;
3052;SDS011;1536;51.098;6.414;2023-07-28T11:44:07;2.00;;;1.70;;
3052;SDS011;1536;51.098;6.414;2023-07-28T11:46:35;1.77;;;1.30;;
3052;SDS011;1536;51.098;6.414;2023-07-28T11:49:10;1.70;;;1.20;;
3052;SDS011;1536;51.098;6.414;2023-07-28T11:51:40;2.17;;;1.13;;
3052;SDS011;1536;51.098;6.414;2023-07-28T11:54:12;1.30;;;1.20;;
3052;SDS011;1536;51.098;6.414;2023-07-28T11:56:42;1.80;;;1.47;;
3052;SDS011;1536;51.098;6.414;2023-07-28T11:59:10;5.83;;;1.33;;
3052;SDS011;1536;51.098;6.414;2023-07-28T12:01:50;1.30;;;1.20;;
3052;SDS011;1536;51.098;6.414;2023-07-28T12:04:19;2.80;;;1.13;;
3052;SDS011;1536;51.098;6.414;2023-07-28T12:09:31;3.73;;;1.30;;
3052;SDS011;1536;51.098;6.414;2023-07-28T12:12:14;5.37;;;1.27;;
3052;SDS011;1536;51.098;6.414;2023-07-28T12:14:43;3.00;;;1.70;;
3052;SDS011;1536;51.098;6.414;2023-07-28T12:17:11;6.73;;;1.87;;
3052;SDS011;1536;51.098;6.414;2023-07-28T12:19:40;1.63;;;1.53;;
3052;SDS011;1536;51.098;6.414;2023-07-28T12:22:09;2.37;;;1.43;;
3052;SDS011;1536;51.098;6.414;2023-07-28T12:24:36;3.40;;;1.60;;
3052;SDS011;1536;51.098;6.414;2023-07-28T12:27:09;7.10;;;2.90;;
3052;SDS011;1536;51.098;6.414;2023-07-28T12:29:37;9.93;;;2.23;;
3052;SDS011;1536;51.098;6.414;2023-07-28T12:32:06;7.77;;;1.80;;
3052;SDS011;1536;51.098;6.414;2023-07-28T12:34:33;6.07;;;1.37;;
3052;SDS011;1536;51.098;6.414;2023-07-28T12:37:00;3.23;;;1.37;;
3052;SDS011;1536;51.098;6.414;2023-07-28T12:39:31;1.97;;;1.73;;
3052;SDS011;1536;51.098;6.414;2023-07-28T12:41:58;2.43;;;1.30;;
3052;SDS011;1536;51.098;6.414;2023-07-28T12:44:25;1.53;;;1.00;;
3052;SDS011;1536;51.098;6.414;2023-07-28T12:46:51;4.33;;;1.37;;
3052;SDS011;1536;51.098;6.414;2023-07-28T12:49:18;2.73;;;1.50;;
3052;SDS011;1536;51.098;6.414;2023-07-28T12:51:45;1.93;;;1.43;;
3052;SDS011;1536;51.098;6.414;2023-07-28T12:54:12;2.60;;;1.53;;
3052;SDS011;1536;51.098;6.414;2023-07-28T12:56:40;2.07;;;1.70;;
3052;SDS011;1536;51.098;6.414;2023-07-28T12:59:08;5.33;;;1.80;;
3052;SDS011;1536;51.098;6.414;2023-07-28T13:01:36;3.00;;;1.87;;
3052;SDS011;1536;51.098;6.414;2023-07-28T13:04:03;4.10;;;2.40;;
3052;SDS011;1536;51.098;6.414;2023-07-28T13:06:30;3.73;;;2.20;;
3052;SDS011;1536;51.098;6.414;2023-07-28T13:08:57;1.90;;;1.60;;
3052;SDS011;1536;51.098;6.414;2023-07-28T13:11:24;2.43;;;1.87;;
3052;SDS011;1536;51.098;6.414;2023-07-28T13:13:52;2.80;;;1.97;;
3052;SDS011;1536;51.098;6.414;2023-07-28T13:16:18;2.13;;;1.93;;
3052;SDS011;1536;51.098;6.414;2023-07-28T13:18:45;3.80;;;1.80;;
3052;SDS011;1536;51.098;6.414;2023-07-28T13:21:12;5.53;;;2.33;;
3052;SDS011;1536;51.098;6.414;2023-07-28T13:23:39;1.87;;;1.77;;
3052;SDS011;1536;51.098;6.414;2023-07-28T13:26:06;3.30;;;2.40;;
3052;SDS011;1536;51.098;6.414;2023-07-28T13:28:33;2.60;;;1.63;;
3052;SDS011;1536;51.098;6.414;2023-07-28T13:31:01;3.20;;;1.60;;
3052;SDS011;1536;51.098;6.414;2023-07-28T13:33:29;1.70;;;1.57;;
3052;SDS011;1536;51.098;6.414;2023-07-28T13:35:57;1.60;;;1.50;;
3052;SDS011;1536;51.098;6.414;2023-07-28T13:38:23;2.07;;;1.87;;
3052;SDS011;1536;51.098;6.414;2023-07-28T13:40:50;2.90;;;1.73;;
3052;SDS011;1536;51.098;6.414;2023-07-28T13:43:17;2.27;;;1.73;;
3052;SDS011;1536;51.098;6.414;2023-07-28T13:45:43;2.30;;;1.80;;
3052;SDS011;1536;51.098;6.414;2023-07-28T13:48:11;2.10;;;1.90;;
3052;SDS011;1536;51.098;6.414;2023-07-28T13:50:40;2.20;;;1.53;;
3052;SDS011;1536;51.098;6.414;2023-07-28T13:53:07;3.00;;;1.60;;
3052;SDS011;1536;51.098;6.414;2023-07-28T13:55:34;3.20;;;1.60;;
3052;SDS011;1536;51.098;6.414;2023-07-28T13:58:01;2.60;;;1.43;;
3052;SDS011;1536;51.098;6.414;2023-07-28T14:00:28;2.50;;;1.43;;
3052;SDS011;1536;51.098;6.414;2023-07-28T14:02:54;1.70;;;1.60;;
3052;SDS011;1536;51.098;6.414;2023-07-28T14:05:22;2.90;;;1.60;;
3052;SDS011;1536;51.098;6.414;2023-07-28T14:07:49;2.23;;;1.60;;
3052;SDS011;1536;51.098;6.414;2023-07-28T14:10:16;1.73;;;1.57;;
3052;SDS011;1536;51.098;6.414;2023-07-28T14:12:43;1.57;;;1.47;;
3052;SDS011;1536;51.098;6.414;2023-07-28T14:15:09;2.00;;;1.87;;
3052;SDS011;1536;51.098;6.414;2023-07-28T14:17:36;1.90;;;1.80;;
3052;SDS011;1536;51.098;6.414;2023-07-28T14:20:03;2.43;;;1.70;;
3052;SDS011;1536;51.098;6.414;2023-07-28T14:22:32;1.80;;;1.53;;
3052;SDS011;1536;51.098;6.414;2023-07-28T14:24:59;1.63;;;1.50;;
3052;SDS011;1536;51.098;6.414;2023-07-28T14:27:26;1.70;;;1.60;;
3052;SDS011;1536;51.098;6.414;2023-07-28T14:29:53;2.33;;;1.40;;
3052;SDS011;1536;51.098;6.414;2023-07-28T14:32:20;2.60;;;1.57;;
3052;SDS011;1536;51.098;6.414;2023-07-28T14:34:46;2.63;;;1.60;;
3052;SDS011;1536;51.098;6.414;2023-07-28T14:37:13;3.80;;;2.30;;
3052;SDS011;1536;51.098;6.414;2023-07-28T14:39:41;3.23;;;1.40;;
3052;SDS011;1536;51.098;6.414;2023-07-28T14:42:08;1.50;;;1.40;;
3052;SDS011;1536;51.098;6.414;2023-07-28T14:44:36;4.80;;;1.77;;
3052;SDS011;1536;51.098;6.414;2023-07-28T14:47:02;1.80;;;1.70;;
3052;SDS011;1536;51.098;6.414;2023-07-28T14:49:30;1.97;;;1.77;;
3052;SDS011;1536;51.098;6.414;2023-07-28T14:51:56;2.00;;;1.80;;
3052;SDS011;1536;51.098;6.414;2023-07-28T14:54:24;1.67;;;1.50;;
3052;SDS011;1536;51.098;6.414;2023-07-28T14:56:52;1.70;;;1.60;;
3052;SDS011;1536;51.098;6.414;2023-07-28T14:59:19;1.47;;;1.33;;
3052;SDS011;1536;51.098;6.414;2023-07-28T15:01:45;2.10;;;1.50;;
3052;SDS011;1536;51.098;6.414;2023-07-28T15:04:12;1.30;;;1.20;;
3052;SDS011;1536;51.098;6.414;2023-07-28T15:06:40;2.03;;;1.53;;
3052;SDS011;1536;51.098;6.414;2023-07-28T15:09:07;1.40;;;1.30;;
3052;SDS011;1536;51.098;6.414;2023-07-28T15:11:34;4.57;;;2.10;;
3052;SDS011;1536;51.098;6.414;2023-07-28T15:14:02;2.67;;;1.77;;
3052;SDS011;1536;51.098;6.414;2023-07-28T15:16:29;1.80;;;1.53;;
3052;SDS011;1536;51.098;6.414;2023-07-28T15:18:56;1.67;;;1.43;;
3052;SDS011;1536;51.098;6.414;2023-07-28T15:21:23;2.53;;;1.30;;
3052;SDS011;1536;51.098;6.414;2023-07-28T15:23:53;1.70;;;1.33;;